Terminal Aerodrome Forecast
Issued by NWS Wilmington, OH

Current Version | Previous Version | Graphics & Text | Print | Product List | Glossary On
Versions: 1 2 3 4 5 6 7 8 9 10 11 12 13 14 15 16 17 18 19 20 21
000
FTUS41 KILN 190540
TAFILN
TAF
KILN 190540Z 1906/2006 15009KT P6SM BKN070 OVC250
     FM190900 19011KT P6SM OVC025 WS020/22045KT
     FM191100 19012KT 2SM SHRA OVC006 WS020/22045KT
     FM191400 20013G22KT 3SM BR VCSH OVC006
     FM191700 21015G25KT P6SM VCSH OVC009
     FM192000 21016G25KT P6SM SCT040 BKN250
     FM200000 20012KT P6SM SCT080=

USA.gov is the U.S. government's official web portal to all federal, state and local government web resources and services.